Time;durP1;ratioP1;P1;durP2;ratioP2;P2;SDS_P1;SDS_P2;PMS_P1;PMS_P2;Temp;Humidity;BMP_temperature;BMP_pressure;BME280_temperature;BME280_humidity;BME280_pressure;Samples;Min_cycle;Max_cycle;Signal;HPM_P1;HPM_P2
2021/12/19 00:04:19;;;;;;;23.65;13.80;;;;;;;6.88;90.53;101763.03;5093173;28;20063;-80
2021/12/19 00:09:29;;;;;;;24.13;14.45;;;;;;;6.88;90.36;101763.03;5094129;28;20100;-80
2021/12/19 00:11:58;;;;;;;25.75;14.45;;;;;;;6.86;90.59;101765.75;5075012;28;20880;-79
2021/12/19 00:14:24;;;;;;;25.10;14.55;;;;;;;6.88;90.62;101761.22;5075112;28;20040;-79
2021/12/19 00:16:54;;;;;;;25.10;14.50;;;;;;;6.86;90.54;101759.56;5075307;28;20039;-81
2021/12/19 00:19:19;;;;;;;26.08;14.27;;;;;;;6.88;90.39;101755.03;5091152;28;20036;-80
2021/12/19 00:21:44;;;;;;;24.80;14.05;;;;;;;6.90;90.40;101751.38;5093369;28;20085;-82
2021/12/19 00:24:10;;;;;;;27.73;15.00;;;;;;;6.94;90.77;101746.78;5076258;28;20036;-81
2021/12/19 00:26:36;;;;;;;25.13;14.73;;;;;;;6.94;90.50;101746.78;5091886;28;20957;-79
2021/12/19 00:29:03;;;;;;;25.67;15.52;;;;;;;6.93;90.33;101739.75;5092577;28;20036;-81
2021/12/19 00:31:29;;;;;;;23.67;13.85;;;;;;;6.94;90.57;101741.47;5091412;28;20032;-81
2021/12/19 00:33:54;;;;;;;25.63;14.63;;;;;;;6.94;90.21;101737.00;5090953;28;20065;-80
2021/12/19 00:36:19;;;;;;;26.27;15.00;;;;;;;6.97;91.13;101743.13;5093211;28;20028;-79
2021/12/19 00:38:45;;;;;;;25.50;14.80;;;;;;;6.97;90.67;101738.66;5076196;28;20055;-81
2021/12/19 00:41:11;;;;;;;27.75;15.35;;;;;;;6.96;90.46;101736.94;5091578;28;20039;-80
2021/12/19 00:43:45;;;;;;;24.30;13.65;;;;;;;6.95;90.60;101736.06;5091112;28;20040;-79
2021/12/19 00:46:13;;;;;;;27.02;14.43;;;;;;;6.96;90.37;101742.25;5076323;28;20059;-79
2021/12/19 00:48:47;;;;;;;27.83;14.93;;;;;;;6.95;90.19;101738.72;5058501;28;20036;-82
2021/12/19 00:51:15;;;;;;;26.50;14.60;;;;;;;6.94;90.57;101736.16;5073266;28;20069;-80
2021/12/19 00:53:42;;;;;;;26.27;15.07;;;;;;;6.88;91.08;101731.13;5073651;28;20028;-80
2021/12/19 00:56:07;;;;;;;25.63;14.93;;;;;;;6.89;91.37;101728.38;5092455;28;20029;-80
2021/12/19 00:58:33;;;;;;;26.70;14.80;;;;;;;6.84;91.21;101725.06;5092836;28;21356;-81
2021/12/19 01:00:59;;;;;;;26.25;14.77;;;;;;;6.85;91.18;101724.13;5091695;28;20693;-82
2021/12/19 01:03:25;;;;;;;27.17;14.15;;;;;;;6.91;91.63;101725.66;5090791;28;20375;-80
2021/12/19 01:05:52;;;;;;;22.80;13.15;;;;;;;6.92;91.69;101720.25;5074499;28;20043;-81
2021/12/19 01:08:17;;;;;;;23.10;12.75;;;;;;;6.96;91.29;101726.31;5091996;28;20034;-80
2021/12/19 01:10:44;;;;;;;24.33;13.02;;;;;;;6.97;91.54;101724.50;5091160;28;21373;-81
2021/12/19 01:13:11;;;;;;;24.17;13.10;;;;;;;6.97;91.32;101719.19;5090308;28;20036;-82
2021/12/19 01:15:36;;;;;;;20.17;11.18;;;;;;;6.99;91.50;101722.63;5072788;28;20028;-80
2021/12/19 01:18:03;;;;;;;22.10;12.20;;;;;;;6.98;91.46;101718.25;5091740;28;20039;-80
2021/12/19 01:20:31;;;;;;;21.33;11.38;;;;;;;6.99;91.17;101712.84;5090382;28;20036;-79
2021/12/19 01:22:56;;;;;;;19.95;10.80;;;;;;;7.01;91.42;101711.00;5090901;28;20042;-81
2021/12/19 01:25:22;;;;;;;21.02;11.05;;;;;;;6.94;91.61;101709.56;5073245;28;20064;-81
2021/12/19 01:27:48;;;;;;;18.42;9.68;;;;;;;6.95;91.40;101700.63;5090760;28;20028;-81
2021/12/19 01:30:14;;;;;;;17.58;9.75;;;;;;;6.96;91.63;101697.03;5090844;28;20039;-80
2021/12/19 01:32:41;;;;;;;16.60;8.35;;;;;;;6.95;91.99;101705.97;5092164;28;20028;-82
2021/12/19 01:35:08;;;;;;;15.35;8.60;;;;;;;6.97;91.42;101712.06;5089489;28;20039;-81
2021/12/19 01:37:34;;;;;;;15.98;8.27;;;;;;;6.98;91.98;101705.81;5058864;28;20028;-80
2021/12/19 01:39:59;;;;;;;16.25;8.07;;;;;;;6.98;92.02;101703.16;5090513;28;20043;-81
2021/12/19 01:42:33;;;;;;;13.25;7.97;;;;;;;6.97;92.06;101704.09;5092016;28;20058;-79
2021/12/19 01:44:59;;;;;;;15.30;8.63;;;;;;;6.95;92.14;101712.13;5090243;28;20039;-82
2021/12/19 01:47:25;;;;;;;15.68;8.65;;;;;;;6.99;92.19;101712.84;5090348;28;20032;-80
2021/12/19 01:49:50;;;;;;;14.80;8.55;;;;;;;6.98;91.70;101712.94;5090412;28;20036;-80
2021/12/19 01:52:16;;;;;;;15.95;9.25;;;;;;;6.98;91.97;101710.28;5072992;28;20182;-79
2021/12/19 01:54:41;;;;;;;19.38;10.18;;;;;;;6.97;92.08;101712.06;5089665;28;20044;-79
2021/12/19 01:57:06;;;;;;;16.15;8.27;;;;;;;6.93;91.73;101706.03;5089871;28;20062;-80
2021/12/19 01:59:32;;;;;;;16.08;8.57;;;;;;;6.90;91.96;101703.50;5091234;28;20089;-81
2021/12/19 02:01:58;;;;;;;16.73;8.30;;;;;;;6.93;91.88;101706.03;5073617;28;20070;-79
2021/12/19 02:04:29;;;;;;;13.35;8.20;;;;;;;6.93;92.41;101703.38;5073109;28;20044;-80
2021/12/19 02:06:56;;;;;;;13.63;7.70;;;;;;;6.97;92.80;101701.44;5073494;28;20101;-80
2021/12/19 02:09:22;;;;;;;15.57;8.23;;;;;;;7.00;92.53;101697.75;5089506;28;20036;-81
2021/12/19 02:11:47;;;;;;;16.05;9.45;;;;;;;7.00;91.96;101693.31;5090114;28;20028;-80
2021/12/19 02:14:12;;;;;;;13.73;8.05;;;;;;;6.99;92.36;101683.59;5090237;28;20040;-80
2021/12/19 02:16:40;;;;;;;16.35;8.35;;;;;;;6.99;92.89;101691.59;5089496;28;20035;-80
2021/12/19 02:19:06;;;;;;;16.77;8.85;;;;;;;6.99;92.36;101686.25;5072823;28;20043;-81
2021/12/19 02:21:31;;;;;;;22.27;11.98;;;;;;;7.00;92.51;101680.00;5091053;28;20490;-80
2021/12/19 02:23:58;;;;;;;20.52;11.75;;;;;;;7.02;92.30;101674.63;5072875;28;20028;-79
2021/12/19 02:26:23;;;;;;;14.60;8.98;;;;;;;7.00;92.67;101666.72;5090717;28;20441;-82
2021/12/19 02:28:49;;;;;;;15.57;9.90;;;;;;;7.00;92.50;101664.06;5090793;28;20043;-80
2021/12/19 02:31:14;;;;;;;14.55;9.60;;;;;;;7.00;92.70;101666.72;5088732;28;20062;-81
2021/12/19 02:33:43;;;;;;;14.88;8.40;;;;;;;6.97;92.41;101664.19;5089721;28;20044;-81
2021/12/19 02:49:28;;;;;;;12.82;6.60;;;;;;;6.95;93.06;101647.44;5089878;28;20059;-79
2021/12/19 02:51:54;;;;;;;13.90;7.28;;;;;;;6.94;92.66;101645.72;5072910;28;20037;-80
2021/12/19 02:54:21;;;;;;;11.85;7.05;;;;;;;6.95;92.56;101653.63;5089884;28;20056;-80
2021/12/19 02:56:46;;;;;;;11.75;6.95;;;;;;;6.97;92.89;101648.25;5073402;28;20028;-81
2021/12/19 02:59:12;;;;;;;11.77;7.20;;;;;;;6.97;92.88;101647.38;5090523;28;20032;-81
2021/12/19 03:01:37;;;;;;;11.60;6.68;;;;;;;6.91;92.93;101640.56;5089714;28;20055;-80
2021/12/19 03:04:03;;;;;;;11.60;6.93;;;;;;;6.91;93.11;101640.56;5072199;28;20048;-80
2021/12/19 03:06:28;;;;;;;12.02;6.13;;;;;;;6.91;92.88;101632.59;5074552;28;20044;-81
2021/12/19 03:08:57;;;;;;;11.60;6.78;;;;;;;6.88;92.88;101638.03;5073723;28;20036;-80
2021/12/19 03:19:34;;;;;;;8.30;5.47;;;;;;;6.82;93.29;101633.03;5091361;28;20047;-79
2021/12/19 03:21:59;;;;;;;9.07;5.22;;;;;;;6.81;93.30;101637.47;5093625;28;20048;-81
2021/12/19 03:24:25;;;;;;;8.85;5.40;;;;;;;6.72;93.54;101632.59;5092472;28;20032;-80
2021/12/19 03:26:50;;;;;;;9.32;5.85;;;;;;;6.78;93.49;101634.09;5092754;28;20039;-81
2021/12/19 03:29:16;;;;;;;10.23;6.00;;;;;;;6.86;93.62;101637.25;5093480;28;20039;-79
2021/12/19 03:31:41;;;;;;;10.80;6.22;;;;;;;6.90;93.58;101637.03;5092077;28;20063;-79
2021/12/19 03:34:06;;;;;;;9.68;6.00;;;;;;;6.86;93.30;101630.16;5093481;28;20084;-81
2021/12/19 03:36:32;;;;;;;11.02;6.38;;;;;;;6.82;93.28;101623.25;5092901;28;20046;-79
2021/12/19 03:38:59;;;;;;;11.48;6.32;;;;;;;6.86;93.13;101624.81;5093775;28;20034;-80
2021/12/19 03:41:33;;;;;;;11.60;6.10;;;;;;;6.86;93.62;101622.16;5092467;28;20076;-80
2021/12/19 03:44:02;;;;;;;9.48;5.68;;;;;;;6.90;93.68;101622.88;5077347;28;20036;-80
2021/12/19 03:46:28;;;;;;;9.10;5.75;;;;;;;6.88;93.23;101625.63;5075397;28;20028;-79
2021/12/19 03:48:53;;;;;;;11.30;6.18;;;;;;;6.90;93.34;101622.88;5076400;28;20047;-80
2021/12/19 03:51:19;;;;;;;9.15;6.03;;;;;;;6.85;93.39;101620.44;5092045;28;20040;-82
2021/12/19 03:53:44;;;;;;;9.45;5.88;;;;;;;6.87;93.10;101615.91;5093304;28;20028;-80
2021/12/19 03:56:09;;;;;;;9.52;6.30;;;;;;;6.84;93.23;101612.53;5094327;28;20028;-80
2021/12/19 03:58:35;;;;;;;9.57;5.95;;;;;;;6.82;93.07;101612.63;5092574;28;20032;-80
2021/12/19 04:01:04;;;;;;;9.95;6.30;;;;;;;6.81;93.50;101613.56;5092856;28;20039;-80
2021/12/19 04:03:30;;;;;;;9.73;6.13;;;;;;;6.77;93.15;101613.75;5093096;28;20097;-81
2021/12/19 04:05:55;;;;;;;11.00;6.55;;;;;;;6.84;92.93;101609.88;5075844;28;20040;-81
2021/12/19 04:08:21;;;;;;;10.38;5.93;;;;;;;6.85;93.70;101609.81;5092112;28;20040;-80
2021/12/19 04:10:47;;;;;;;9.57;5.85;;;;;;;6.82;93.36;101611.75;5093002;28;20551;-80
2021/12/19 04:13:14;;;;;;;11.73;6.97;;;;;;;6.82;93.07;101601.97;5075369;28;20039;-81
2021/12/19 04:15:39;;;;;;;9.75;6.00;;;;;;;6.87;92.94;101599.09;5093201;28;20052;-80
2021/12/19 04:18:05;;;;;;;9.50;5.57;;;;;;;6.79;93.53;101587.97;5092833;28;20054;-80
2021/12/19 04:20:31;;;;;;;9.88;5.82;;;;;;;6.79;93.34;101586.19;5092501;28;20058;-81
2021/12/19 04:22:56;;;;;;;9.95;5.95;;;;;;;6.83;93.63;101581.56;5092074;28;20032;-80
2021/12/19 04:25:22;;;;;;;11.18;7.05;;;;;;;6.84;93.58;101581.50;5074777;28;20062;-81
2021/12/19 04:27:47;;;;;;;11.48;6.90;;;;;;;6.77;93.27;101585.38;5075050;28;20039;-81
2021/12/19 04:30:17;;;;;;;11.10;6.85;;;;;;;6.80;93.46;101577.25;5090590;28;20034;-81
2021/12/19 04:32:46;;;;;;;11.70;6.95;;;;;;;6.83;93.51;101577.13;5091165;28;20040;-79
2021/12/19 04:35:12;;;;;;;10.25;6.28;;;;;;;6.87;93.41;101573.38;5091920;28;20041;-80
2021/12/19 04:38:29;;;;;;;10.73;6.55;;;;;;;6.89;93.64;101567.97;5090897;28;20090;-81
2021/12/19 04:40:57;;;;;;;11.35;7.18;;;;;;;6.91;93.78;101561.66;5091131;28;20040;-81
2021/12/19 04:57:00;;;;;;;12.80;8.40;;;;;;;7.02;93.05;101541.63;5090302;28;20100;-79
2021/12/19 05:02:16;;;;;;;14.70;9.45;;;;;;;7.02;93.26;101537.19;5091069;28;20046;-81
2021/12/19 05:05:18;;;;;;;15.05;9.75;;;;;;;6.99;93.19;101537.34;5092195;28;20048;-80
2021/12/19 05:15:43;;;;;;;13.82;8.75;;;;;;;6.94;93.37;101526.94;5092386;28;20074;-80
2021/12/19 05:18:09;;;;;;;16.02;9.43;;;;;;;6.95;93.30;101531.31;5091605;28;20024;-80
2021/12/19 05:20:36;;;;;;;18.38;11.60;;;;;;;6.98;93.53;101524.09;5089966;28;20028;-79
2021/12/19 05:23:19;;;;;;;15.45;9.98;;;;;;;7.00;93.59;101525.75;5091907;28;20040;-81
2021/12/19 05:25:44;;;;;;;12.80;7.60;;;;;;;6.94;93.27;101521.59;5091012;28;20760;-81
2021/12/19 05:28:09;;;;;;;13.50;8.10;;;;;;;6.89;93.82;101526.28;5090479;28;20028;-80
2021/12/19 05:30:35;;;;;;;11.60;7.43;;;;;;;6.92;93.34;101525.28;5073918;28;20522;-79
2021/12/19 05:33:02;;;;;;;12.63;8.02;;;;;;;6.93;93.53;101517.22;5073259;28;20119;-81
2021/12/19 05:46:38;;;;;;;11.48;7.10;;;;;;;6.98;93.66;101530.28;5091794;28;20269;-80
2021/12/19 05:49:04;;;;;;;10.70;6.80;;;;;;;6.92;93.41;101527.94;5089696;28;20134;-80
2021/12/19 05:51:30;;;;;;;10.68;6.30;;;;;;;6.79;93.65;101521.50;5073390;28;20468;-81
2021/12/19 05:53:55;;;;;;;9.07;5.95;;;;;;;6.79;93.63;101530.34;5089502;28;20036;-80
2021/12/19 05:56:21;;;;;;;10.05;6.30;;;;;;;6.74;93.64;101531.50;5073210;28;20131;-81
2021/12/19 05:58:46;;;;;;;9.05;6.03;;;;;;;6.72;94.33;101525.41;5089704;28;20036;-81
2021/12/19 06:01:11;;;;;;;9.45;5.78;;;;;;;6.73;93.86;101530.66;5091459;28;20032;-81
2021/12/19 06:03:37;;;;;;;9.90;5.90;;;;;;;6.75;93.53;101530.56;5089806;28;20075;-80
2021/12/19 06:06:02;;;;;;;9.30;5.95;;;;;;;6.73;93.81;101527.97;5091229;28;20036;-80
2021/12/19 06:08:28;;;;;;;8.07;5.47;;;;;;;6.73;94.15;101532.44;5074291;28;20032;-80
2021/12/19 06:10:53;;;;;;;9.05;5.70;;;;;;;6.68;93.76;101535.31;5091068;28;20040;-80
2021/12/19 06:13:18;;;;;;;10.13;5.78;;;;;;;6.72;94.13;101526.25;5073589;28;20024;-81
2021/12/19 06:15:44;;;;;;;7.60;5.35;;;;;;;6.63;94.14;101526.72;5091311;28;20040;-80
2021/12/19 06:18:09;;;;;;;8.98;5.72;;;;;;;6.60;94.01;101521.50;5092243;28;20036;-82
2021/12/19 06:20:34;;;;;;;8.52;5.55;;;;;;;6.63;94.42;101519.59;5090398;28;20056;-82
2021/12/19 06:23:00;;;;;;;8.20;5.80;;;;;;;6.71;94.20;101516.56;5089879;28;20036;-80
2021/12/19 06:25:26;;;;;;;8.93;5.90;;;;;;;6.73;94.51;101512.03;5073799;28;20516;-81
2021/12/19 06:27:51;;;;;;;9.27;5.90;;;;;;;6.62;94.25;101519.66;5089730;28;20381;-81
2021/12/19 06:30:17;;;;;;;8.73;5.70;;;;;;;6.72;94.55;101509.44;5090803;28;20035;-81
2021/12/19 06:32:42;;;;;;;8.60;5.60;;;;;;;6.80;94.70;101505.47;5072258;28;20041;-80
2021/12/19 06:35:17;;;;;;;8.68;5.55;;;;;;;6.82;94.54;101498.28;5072668;28;20128;-82
2021/12/19 06:37:43;;;;;;;8.70;5.65;;;;;;;6.69;94.09;101504.28;5074342;28;20039;-81
2021/12/19 06:40:11;;;;;;;8.00;5.38;;;;;;;6.62;93.88;101491.28;5089920;28;20040;-81
2021/12/19 06:42:36;;;;;;;8.45;5.22;;;;;;;6.61;94.03;101501.97;5072603;28;20036;-81
2021/12/19 06:45:03;;;;;;;8.27;5.47;;;;;;;6.51;94.42;101504.22;5091018;28;20046;-79
2021/12/19 06:47:29;;;;;;;8.50;6.00;;;;;;;6.56;94.32;101502.19;5090700;28;20385;-81
2021/12/19 06:49:54;;;;;;;8.68;5.68;;;;;;;6.63;94.94;101498.34;5072942;28;20092;-81
2021/12/19 06:52:19;;;;;;;8.55;5.60;;;;;;;6.57;94.53;101495.94;5091298;28;20028;-80
2021/12/19 06:54:45;;;;;;;8.23;5.45;;;;;;;6.58;94.28;101495.00;5077757;28;20379;-81
2021/12/19 06:57:10;;;;;;;9.38;5.82;;;;;;;6.60;94.91;101495.78;5093882;28;20032;-81
2021/12/19 06:59:35;;;;;;;8.65;5.55;;;;;;;6.59;94.62;101486.09;5076675;28;20056;-80
2021/12/19 07:02:01;;;;;;;7.57;4.78;;;;;;;6.58;94.43;101488.84;5075969;28;20032;-80
2021/12/19 07:04:26;;;;;;;9.88;5.78;;;;;;;6.49;94.09;101483.97;5094296;28;20020;-80
2021/12/19 07:06:52;;;;;;;7.63;5.00;;;;;;;6.55;94.50;101487.19;5093072;28;20095;-81
2021/12/19 07:09:17;;;;;;;8.20;4.93;;;;;;;6.48;94.38;101487.56;5092989;28;20037;-81
2021/12/19 07:11:43;;;;;;;7.07;5.07;;;;;;;6.41;94.61;101481.69;5092676;28;20063;-80
2021/12/19 07:14:09;;;;;;;8.60;5.78;;;;;;;6.37;95.10;101488.09;5074231;28;20037;-82
2021/12/19 07:16:34;;;;;;;9.82;5.80;;;;;;;6.48;94.85;101484.91;5076752;28;20036;-80
2021/12/19 07:18:59;;;;;;;9.70;5.95;;;;;;;6.49;94.58;101471.53;5093803;28;20036;-81
2021/12/19 07:21:25;;;;;;;8.18;5.15;;;;;;;6.59;94.79;101474.63;5073401;28;20124;-80
2021/12/19 07:23:51;;;;;;;8.32;4.97;;;;;;;6.52;94.80;101468.75;5089508;28;21018;-80
2021/12/19 07:26:17;;;;;;;9.50;5.38;;;;;;;6.57;94.46;101477.34;5092642;28;20032;-81
2021/12/19 07:28:45;;;;;;;8.40;5.05;;;;;;;6.52;94.71;101473.19;5092293;28;20023;-80
2021/12/19 07:31:11;;;;;;;8.98;5.13;;;;;;;6.48;94.28;101480.44;5075244;28;20053;-81
2021/12/19 07:33:36;;;;;;;9.43;5.82;;;;;;;6.53;94.86;101478.44;5076461;28;20104;-81
2021/12/19 07:36:02;;;;;;;10.07;5.97;;;;;;;6.54;94.73;101474.84;5094162;28;20040;-80
2021/12/19 07:38:36;;;;;;;10.13;6.05;;;;;;;6.58;95.12;101478.19;5094267;28;20168;-81
2021/12/19 07:41:02;;;;;;;11.45;6.22;;;;;;;6.57;94.70;101471.16;5077092;28;20024;-81
2021/12/19 07:43:28;;;;;;;10.63;5.78;;;;;;;6.55;94.50;101473.91;5092784;28;20043;-81
2021/12/19 07:45:55;;;;;;;12.20;6.18;;;;;;;6.50;94.54;101475.91;5092605;28;20040;-81
2021/12/19 07:48:20;;;;;;;10.57;6.47;;;;;;;6.64;94.58;101477.94;5092624;28;20072;-81
2021/12/19 07:50:45;;;;;;;10.45;6.32;;;;;;;6.66;94.47;101473.41;5074399;28;20035;-80
2021/12/19 07:53:11;;;;;;;11.38;5.95;;;;;;;6.62;94.33;101469.16;5092664;28;20137;-81
2021/12/19 07:55:36;;;;;;;11.27;5.82;;;;;;;6.49;94.78;101465.38;5092757;28;20044;-80
2021/12/19 07:58:01;;;;;;;13.93;5.70;;;;;;;6.50;94.17;101467.94;5075006;28;20047;-81
2021/12/19 08:00:27;;;;;;;11.45;5.95;;;;;;;6.56;94.49;101470.31;5092786;28;20036;-80
2021/12/19 08:02:52;;;;;;;10.82;5.82;;;;;;;6.57;94.52;101465.84;5076338;28;20063;-81
2021/12/19 08:05:18;;;;;;;8.10;4.50;;;;;;;6.59;94.36;101475.47;5073658;28;20034;-81
2021/12/19 08:07:47;;;;;;;9.20;4.90;;;;;;;6.50;94.64;101462.63;5078565;28;20073;-79
2021/12/19 08:11:39;;;;;;;8.93;4.90;;;;;;;6.44;94.23;101468.25;5090860;28;20040;-81
2021/12/19 08:13:00;;;;;;;10.25;5.72;;;;;;;6.45;94.50;101469.97;5092472;28;20040;-83
2021/12/19 08:15:25;;;;;;;10.15;5.05;;;;;;;6.54;94.63;101466.88;5075796;28;20036;-81
2021/12/19 08:17:51;;;;;;;9.00;4.63;;;;;;;6.58;94.55;101468.44;5074127;28;20209;-82
2021/12/19 08:20:17;;;;;;;7.45;4.38;;;;;;;6.62;94.37;101461.16;5092969;28;20820;-82
2021/12/19 08:22:47;;;;;;;6.80;3.97;;;;;;;6.62;94.19;101463.81;5091943;28;20067;-82
2021/12/19 08:25:12;;;;;;;6.70;3.70;;;;;;;6.60;94.24;101468.34;5091420;28;20031;-83
2021/12/19 08:27:38;;;;;;;6.35;3.60;;;;;;;6.57;93.57;101469.38;5092885;28;20047;-82
2021/12/19 08:30:07;;;;;;;6.00;3.58;;;;;;;6.61;94.21;101462.97;5074229;28;20036;-82
2021/12/19 08:32:32;;;;;;;6.28;3.90;;;;;;;6.62;93.69;101467.38;5075057;28;20044;-84
2021/12/19 08:34:58;;;;;;;7.25;4.13;;;;;;;6.63;93.59;101462.94;5074544;28;20051;-81
2021/12/19 08:37:23;;;;;;;6.45;4.18;;;;;;;6.61;93.93;101456.78;5075740;28;20032;-83
2021/12/19 08:39:48;;;;;;;7.60;4.63;;;;;;;6.59;93.76;101454.22;5075539;28;20032;-82
2021/12/19 08:42:15;;;;;;;7.40;4.60;;;;;;;6.56;93.64;101454.38;5092814;28;20043;-83
2021/12/19 08:44:40;;;;;;;8.27;4.13;;;;;;;6.60;94.03;101453.28;5073814;28;20449;-80
2021/12/19 08:47:06;;;;;;;8.30;4.53;;;;;;;6.66;94.18;101457.44;5089608;28;20039;-80
2021/12/19 08:49:32;;;;;;;8.32;4.43;;;;;;;6.71;94.01;101451.91;5091506;28;20050;-79
2021/12/19 08:51:57;;;;;;;7.00;3.95;;;;;;;6.59;93.93;101448.91;5073008;28;20090;-82
2021/12/19 08:54:22;;;;;;;7.75;4.40;;;;;;;6.57;93.99;101458.75;5074165;28;20039;-81
2021/12/19 08:56:49;;;;;;;9.18;4.57;;;;;;;6.53;94.00;101456.31;5092176;28;20057;-81
2021/12/19 08:59:14;;;;;;;7.35;4.18;;;;;;;6.45;94.13;101455.81;5073773;28;20085;-80
2021/12/19 09:01:40;;;;;;;5.72;3.58;;;;;;;6.44;94.23;101454.09;5073993;28;20040;-80
2021/12/19 09:04:06;;;;;;;7.47;3.67;;;;;;;6.41;93.97;101456.91;5058168;28;20048;-80
2021/12/19 09:06:31;;;;;;;5.80;3.67;;;;;;;6.41;94.27;101457.78;5073555;28;20055;-81
2021/12/19 09:08:57;;;;;;;6.65;4.07;;;;;;;6.49;94.17;101458.25;5075511;28;20040;-80
2021/12/19 09:11:22;;;;;;;6.38;3.78;;;;;;;6.52;94.27;101458.09;5072694;28;20047;-80
2021/12/19 09:13:49;;;;;;;7.22;3.92;;;;;;;6.56;94.10;101461.47;5093064;28;20064;-81
2021/12/19 09:16:14;;;;;;;7.63;4.07;;;;;;;6.57;94.24;101458.75;5074960;28;20029;-79
2021/12/19 09:18:40;;;;;;;6.53;3.83;;;;;;;6.60;94.10;101453.28;5088893;28;20062;-81
2021/12/19 09:21:05;;;;;;;5.68;3.42;;;;;;;6.58;93.83;101451.63;5089405;28;20058;-82
2021/12/19 09:23:32;;;;;;;6.03;3.72;;;;;;;6.68;93.86;101452.06;5091111;28;20152;-82
2021/12/19 09:25:58;;;;;;;8.32;4.03;;;;;;;6.63;93.66;101455.81;5075632;28;20050;-82
2021/12/19 09:28:24;;;;;;;6.50;3.80;;;;;;;6.58;93.69;101446.31;5092243;28;20024;-82
2021/12/19 09:30:50;;;;;;;6.50;3.70;;;;;;;6.67;93.63;101447.69;5073343;28;20054;-81
2021/12/19 09:33:15;;;;;;;6.05;3.60;;;;;;;6.68;93.39;101452.06;5089124;28;20393;-80
2021/12/19 09:35:40;;;;;;;6.65;3.80;;;;;;;6.63;93.64;101450.50;5088978;28;20036;-81
2021/12/19 09:38:06;;;;;;;6.47;3.88;;;;;;;6.68;93.51;101450.25;5089378;28;20040;-80
2021/12/19 09:40:34;;;;;;;6.85;3.45;;;;;;;6.75;93.28;101448.16;5091231;28;20040;-81
2021/12/19 09:43:02;;;;;;;;;;;;;;;6.84;93.45;101445.91;5090260;28;20032;-80
2021/12/19 09:45:29;;;;;;;4.90;3.00;;;;;;;6.89;93.59;101454.50;5088506;28;20050;-80
2021/12/19 09:47:55;;;;;;;5.65;3.03;;;;;;;6.92;93.49;101457.00;5088918;28;20050;-80
2021/12/19 09:50:20;;;;;;;5.80;3.70;;;;;;;6.94;93.62;101452.47;5089387;28;20052;-81
2021/12/19 09:52:46;;;;;;;5.68;3.17;;;;;;;6.93;93.27;101452.53;5088058;28;20036;-80
2021/12/19 09:55:17;;;;;;;7.72;4.93;;;;;;;6.93;93.43;101452.53;5088552;28;20520;-81
2021/12/19 09:57:42;;;;;;;8.35;5.43;;;;;;;6.93;93.25;101452.53;5086606;28;20036;-80
2021/12/19 10:00:08;;;;;;;8.23;5.22;;;;;;;6.93;93.20;101445.44;5071475;28;20178;-81
2021/12/19 10:02:33;;;;;;;6.65;4.75;;;;;;;6.92;93.22;101433.06;5071911;28;20656;-81
2021/12/19 10:05:14;;;;;;;6.93;4.22;;;;;;;6.97;93.19;101429.31;5071593;28;20039;-82
2021/12/19 10:07:46;;;;;;;7.00;3.55;;;;;;;7.02;93.04;101425.47;5073651;28;20115;-81
2021/12/19 10:10:13;;;;;;;8.18;5.47;;;;;;;7.00;93.47;101423.84;5073032;28;20058;-80
2021/12/19 10:15:18;;;;;;;8.32;6.00;;;;;;;7.00;93.01;101410.53;5086351;28;20630;-81
2021/12/19 10:17:45;;;;;;;9.35;4.95;;;;;;;6.98;92.94;101415.06;5072673;28;20043;-81
2021/12/19 10:20:12;;;;;;;11.75;7.47;;;;;;;6.93;92.92;101405.53;5072175;28;20040;-79
2021/12/19 10:22:40;;;;;;;11.02;6.80;;;;;;;6.98;93.18;101405.28;5090421;28;20028;-82
2021/12/19 10:25:19;;;;;;;12.60;7.15;;;;;;;6.97;93.41;101400.91;5069087;28;20075;-81
2021/12/19 10:27:49;;;;;;;;;;;;;;;6.98;93.14;101397.31;5087471;28;20024;-82
2021/12/19 10:30:21;;;;;;;10.55;6.20;;;;;;;6.92;93.10;101392.31;5072390;28;19970;-80
2021/12/19 10:32:58;;;;;;;9.10;5.03;;;;;;;6.87;92.90;101389.03;5090163;28;20051;-80
2021/12/19 10:35:43;;;;;;;8.88;5.72;;;;;;;6.89;93.09;101388.03;5090851;28;20043;-83
2021/12/19 10:38:13;;;;;;;11.15;5.72;;;;;;;6.89;93.05;101381.84;5091362;28;20032;-81
2021/12/19 10:40:39;;;;;;;11.82;6.20;;;;;;;6.88;93.21;101383.66;5087278;28;20035;-82
2021/12/19 10:43:05;;;;;;;11.75;7.07;;;;;;;6.78;92.74;101377.09;5071910;28;20108;-82
2021/12/19 10:45:42;;;;;;;11.00;7.20;;;;;;;6.76;93.20;101367.47;5070592;28;20028;-82
2021/12/19 10:48:08;;;;;;;13.15;8.60;;;;;;;6.83;93.01;101364.41;5086664;28;20070;-80
2021/12/19 10:51:07;;;;;;;10.68;5.00;;;;;;;6.89;93.00;101358.78;5089248;28;20036;-81
2021/12/19 10:53:34;;;;;;;9.73;6.30;;;;;;;6.93;93.17;101356.81;5074617;28;20044;-80
2021/12/19 10:56:01;;;;;;;9.40;6.20;;;;;;;6.97;93.23;101354.84;5089648;28;20047;-82
2021/12/19 10:58:33;;;;;;;8.07;5.43;;;;;;;6.83;92.58;101350.25;5071624;28;20047;-81
2021/12/19 11:01:10;;;;;;;8.65;5.75;;;;;;;6.80;92.22;101345.97;5086695;28;20032;-81
2021/12/19 11:03:50;;;;;;;7.28;4.30;;;;;;;6.79;92.28;101352.22;5088572;28;20051;-81
2021/12/19 11:06:28;;;;;;;8.70;5.47;;;;;;;6.79;92.86;101346.91;5072080;28;20040;-82
2021/12/19 11:08:54;;;;;;;9.82;6.38;;;;;;;6.76;92.71;101344.41;5072682;28;20078;-81
2021/12/19 11:11:32;;;;;;;6.57;4.13;;;;;;;6.78;92.90;101342.53;5088886;28;20766;-80
2021/12/19 11:13:58;;;;;;;9.55;5.38;;;;;;;6.83;92.58;101342.28;5088819;28;20032;-81
2021/12/19 11:16:23;;;;;;;8.02;5.05;;;;;;;6.79;92.67;101340.72;5071072;28;20123;-80
2021/12/19 11:18:50;;;;;;;9.38;5.63;;;;;;;6.83;92.99;101334.31;5072915;28;20064;-82
2021/12/19 11:21:17;;;;;;;8.65;5.85;;;;;;;6.85;92.93;101329.78;5090091;28;20094;-81
2021/12/19 11:23:42;;;;;;;8.90;5.53;;;;;;;6.91;93.04;101322.31;5073627;28;20032;-81
2021/12/19 11:26:08;;;;;;;10.13;5.43;;;;;;;6.97;93.08;101312.31;5089645;28;20081;-81
2021/12/19 11:28:33;;;;;;;9.98;5.45;;;;;;;6.95;93.17;101309.72;5071568;28;20052;-81
2021/12/19 11:31:00;;;;;;;10.77;5.47;;;;;;;7.03;93.12;101309.31;5070063;28;20039;-81
2021/12/19 11:33:36;;;;;;;7.85;4.80;;;;;;;7.08;93.24;101302.81;5070297;28;20061;-82
2021/12/19 11:36:01;;;;;;;9.68;5.90;;;;;;;7.06;92.84;101304.69;5086567;28;20087;-81
2021/12/19 11:38:27;;;;;;;8.32;4.43;;;;;;;7.09;92.60;101293.88;5086900;28;20063;-81
2021/12/19 11:40:52;;;;;;;8.77;4.80;;;;;;;7.10;92.64;101300.09;5072803;28;20065;-81
2021/12/19 11:43:19;;;;;;;8.43;4.90;;;;;;;7.05;93.10;101295.00;5090166;28;20028;-84
2021/12/19 11:45:53;;;;;;;7.60;4.82;;;;;;;7.02;92.86;101296.97;5088274;28;20024;-82
2021/12/19 11:48:27;;;;;;;9.90;6.35;;;;;;;6.97;93.05;101288.38;5091156;28;20107;-83
2021/12/19 11:51:07;;;;;;;10.70;5.60;;;;;;;6.97;93.24;101283.06;5088691;28;20071;-84
2021/12/19 11:53:37;;;;;;;10.50;6.97;;;;;;;6.84;92.89;101277.53;5089550;28;20417;-83
2021/12/19 11:56:04;;;;;;;10.23;5.97;;;;;;;6.88;92.53;101279.09;5072100;28;20040;-83
2021/12/19 11:58:32;;;;;;;10.07;5.40;;;;;;;6.97;93.17;101261.78;5088959;28;20036;-82
2021/12/19 12:00:59;;;;;;;11.05;6.53;;;;;;;6.92;93.02;101264.69;5086567;28;20428;-82
2021/12/19 12:03:34;;;;;;;11.77;6.20;;;;;;;6.92;92.84;101267.34;5088092;28;20060;-82
2021/12/19 12:06:20;;;;;;;9.80;5.95;;;;;;;6.88;93.15;101264.00;5089051;28;20052;-83
2021/12/19 12:09:07;;;;;;;11.65;6.38;;;;;;;6.78;92.84;101267.22;5089385;28;20654;-82
2021/12/19 12:11:34;;;;;;;9.60;6.32;;;;;;;6.80;93.25;101254.72;5090704;28;20047;-82
2021/12/19 12:14:18;;;;;;;8.38;5.30;;;;;;;6.83;92.92;101265.19;5086591;28;20032;-82
2021/12/19 12:17:08;;;;;;;10.30;5.85;;;;;;;6.83;92.83;101257.22;5088681;28;21017;-83
2021/12/19 12:19:56;;;;;;;7.53;5.20;;;;;;;6.86;92.65;101247.25;5088143;28;20037;-82
2021/12/19 12:22:26;;;;;;;;;;;;;;;6.87;92.44;101258.75;5069240;28;20407;-82
2021/12/19 12:25:21;;;;;;;9.98;5.70;;;;;;;6.87;92.54;101248.13;5090445;28;19920;-83
2021/12/19 12:27:53;;;;;;;10.13;7.03;;;;;;;6.83;92.70;101241.25;5069568;28;20056;-83
2021/12/19 12:30:24;;;;;;;9.75;6.53;;;;;;;6.82;92.88;101236.88;5069303;28;20028;-83
2021/12/19 12:32:50;;;;;;;9.90;6.35;;;;;;;6.83;92.65;101239.47;5069222;28;20115;-83
2021/12/19 12:35:17;;;;;;;8.98;6.10;;;;;;;6.91;93.09;101231.06;5088604;28;20461;-83
2021/12/19 12:37:43;;;;;;;10.75;6.07;;;;;;;6.71;92.63;101233.94;5070061;28;20028;-83